Time,TemperatureF,DewpointF,PressureIn,WindDirection,WindDirectionDegrees,WindSpeedMPH,WindSpeedGustMPH,Humidity,HourlyPrecipIn,Conditions,Clouds,dailyrainin,SoftwareType,DateUTC
2013-04-08 00:03:00,51.0,40.0,29.95,East,83,2.0,7.0,65,0.00,,,0.01,,2013-04-08 04:03:00,
2013-04-08 00:13:00,51.0,40.0,29.95,East,83,2.0,7.0,65,0.00,,,0.01,,2013-04-08 04:13:00,
2013-04-08 00:23:00,51.0,40.0,29.94,ENE,61,3.0,10.0,65,0.00,,,0.01,,2013-04-08 04:23:00,
2013-04-08 00:33:00,51.0,40.0,29.94,ENE,61,3.0,10.0,65,0.00,,,0.01,,2013-04-08 04:33:00,
2013-04-08 00:44:00,51.0,40.0,29.94,ENE,61,3.0,10.0,65,0.00,,,0.01,,2013-04-08 04:44:00,
2013-04-08 00:53:00,50.0,39.0,29.95,East,96,0.0,6.0,66,0.00,,,0.01,,2013-04-08 04:53:00,
2013-04-08 01:02:00,50.0,39.0,29.95,East,96,0.0,6.0,66,0.00,,,0.01,,2013-04-08 05:02:00,
2013-04-08 01:12:00,50.0,39.0,29.95,East,96,0.0,6.0,66,0.00,,,0.01,,2013-04-08 05:12:00,
2013-04-08 01:22:00,50.0,39.0,29.95,East,96,0.0,6.0,66,0.00,,,0.01,,2013-04-08 05:22:00,
2013-04-08 01:32:00,49.0,38.0,29.95,East,88,1.0,9.0,66,0.00,,,0.01,,2013-04-08 05:32:00,
2013-04-08 01:42:00,48.0,38.0,29.95,East,94,3.0,9.0,67,0.00,,,0.01,,2013-04-08 05:42:00,
2013-04-08 01:53:00,48.0,38.0,29.95,East,94,3.0,9.0,67,0.00,,,0.01,,2013-04-08 05:53:00,
2013-04-08 02:02:00,47.0,37.0,29.95,East,96,4.0,11.0,68,0.00,,,0.01,,2013-04-08 06:02:00,
2013-04-08 02:12:00,47.0,37.0,29.95,ESE,106,5.0,11.0,68,0.00,,,0.01,,2013-04-08 06:12:00,
2013-04-08 02:22:00,47.0,37.0,29.95,ESE,106,5.0,11.0,68,0.00,,,0.01,,2013-04-08 06:22:00,
2013-04-08 02:32:00,47.0,37.0,29.95,East,100,6.0,11.0,69,0.00,,,0.01,,2013-04-08 06:32:00,
2013-04-08 02:43:00,47.0,37.0,29.95,East,100,6.0,11.0,69,0.00,,,0.01,,2013-04-08 06:43:00,
2013-04-08 02:52:00,47.0,37.0,29.94,ESE,109,2.0,10.0,69,0.00,,,0.01,,2013-04-08 06:52:00,
2013-04-08 03:02:00,47.0,37.0,29.93,ESE,103,5.0,11.0,69,0.00,,,0.01,,2013-04-08 07:02:00,
2013-04-08 03:12:00,47.0,37.0,29.93,ESE,103,5.0,11.0,69,0.00,,,0.01,,2013-04-08 07:12:00,
2013-04-08 03:22:00,47.0,37.0,29.93,ESE,111,4.0,12.0,69,0.00,,,0.01,,2013-04-08 07:22:00,
2013-04-08 03:33:00,47.0,37.0,29.93,ESE,111,4.0,12.0,69,0.00,,,0.01,,2013-04-08 07:33:00,
2013-04-08 03:42:00,47.0,37.0,29.93,ESE,111,4.0,12.0,69,0.00,,,0.01,,2013-04-08 07:42:00,
2013-04-08 03:53:00,46.0,37.0,29.92,ESE,123,5.0,9.0,71,0.00,,,0.00,,2013-04-08 07:53:00,
2013-04-08 04:02:00,46.0,37.0,29.90,ESE,105,1.0,7.0,72,0.00,,,0.00,,2013-04-08 08:02:00,
2013-04-08 04:12:00,46.0,37.0,29.90,ESE,105,1.0,7.0,72,0.00,,,0.00,,2013-04-08 08:12:00,
2013-04-08 04:22:00,46.0,37.0,29.90,ESE,105,1.0,7.0,72,0.00,,,0.00,,2013-04-08 08:22:00,
2013-04-08 04:33:00,46.0,37.0,29.90,ESE,103,0.0,5.0,72,0.00,,,0.00,,2013-04-08 08:33:00,
2013-04-08 04:42:00,46.0,38.0,29.89,East,86,0.0,7.0,73,0.00,,,0.00,,2013-04-08 08:42:00,
2013-04-08 04:52:00,46.0,38.0,29.89,East,86,0.0,7.0,73,0.00,,,0.00,,2013-04-08 08:52:00,
2013-04-08 05:02:00,46.0,38.0,29.88,East,84,2.0,6.0,73,0.00,,,0.00,,2013-04-08 09:02:00,
2013-04-08 05:12:00,46.0,38.0,29.88,East,92,4.0,7.0,73,0.00,,,0.00,,2013-04-08 09:12:00,
2013-04-08 05:23:00,46.0,38.0,29.88,East,92,4.0,7.0,73,0.00,,,0.00,,2013-04-08 09:23:00,
2013-04-08 05:33:00,45.0,37.0,29.88,East,90,6.0,10.0,74,0.00,,,0.00,,2013-04-08 09:33:00,
2013-04-08 05:43:00,45.0,37.0,29.88,East,90,6.0,10.0,74,0.00,,,0.00,,2013-04-08 09:43:00,
2013-04-08 05:53:00,45.0,38.0,29.87,East,91,5.0,11.0,75,0.00,,,0.00,,2013-04-08 09:53:00,
2013-04-08 06:03:00,45.0,38.0,29.87,East,96,5.0,10.0,75,0.00,,,0.00,,2013-04-08 10:03:00,
2013-04-08 06:13:00,45.0,38.0,29.87,East,96,5.0,10.0,75,0.00,,,0.00,,2013-04-08 10:13:00,
2013-04-08 06:23:00,45.0,38.0,29.87,East,84,4.0,10.0,76,0.00,,,0.00,,2013-04-08 10:23:00,
2013-04-08 06:33:00,45.0,38.0,29.86,ESE,102,6.0,11.0,76,0.00,,,0.00,,2013-04-08 10:33:00,
2013-04-08 06:43:00,45.0,38.0,29.86,ESE,102,6.0,11.0,76,0.00,,,0.00,,2013-04-08 10:43:00,
2013-04-08 06:53:00,45.0,38.0,29.86,East,101,6.0,12.0,77,0.00,,,0.00,,2013-04-08 10:53:00,
2013-04-08 07:02:00,45.0,38.0,29.87,ESE,105,6.0,9.0,77,0.00,,,0.00,,2013-04-08 11:02:00,
2013-04-08 07:12:00,45.0,38.0,29.86,East,87,2.0,10.0,77,0.00,,,0.00,,2013-04-08 11:12:00,
2013-04-08 07:23:00,45.0,38.0,29.86,East,87,2.0,10.0,77,0.00,,,0.00,,2013-04-08 11:23:00,
2013-04-08 07:32:00,45.0,39.0,29.87,East,94,2.0,7.0,78,0.00,,,0.00,,2013-04-08 11:32:00,
2013-04-08 07:42:00,45.0,39.0,29.87,East,94,2.0,7.0,78,0.00,,,0.00,,2013-04-08 11:42:00,
2013-04-08 07:53:00,45.0,39.0,29.87,East,101,2.0,6.0,78,0.00,,,0.00,,2013-04-08 11:53:00,
2013-04-08 08:03:00,45.0,39.0,29.87,East,92,0.0,5.0,79,0.00,,,0.00,,2013-04-08 12:03:00,
2013-04-08 08:12:00,45.0,39.0,29.87,East,92,0.0,5.0,79,0.00,,,0.00,,2013-04-08 12:12:00,
2013-04-08 08:23:00,45.0,39.0,29.87,ESE,105,0.0,7.0,80,0.00,,,0.00,,2013-04-08 12:23:00,
2013-04-08 08:33:00,45.0,40.0,29.87,ESE,111,0.0,5.0,82,0.00,,,0.00,,2013-04-08 12:33:00,
2013-04-08 08:42:00,45.0,40.0,29.87,ESE,111,0.0,5.0,82,0.00,,,0.00,,2013-04-08 12:42:00,
2013-04-08 08:53:00,45.0,41.0,29.87,ESE,111,0.0,0.0,85,0.00,,,0.00,,2013-04-08 12:53:00,
2013-04-08 09:03:00,45.0,41.0,29.85,ESE,102,6.0,9.0,86,0.00,,,0.00,,2013-04-08 13:03:00,
2013-04-08 09:12:00,45.0,41.0,29.85,ESE,102,6.0,9.0,86,0.00,,,0.00,,2013-04-08 13:12:00,
2013-04-08 09:22:00,45.0,41.0,29.84,ESE,104,6.0,11.0,87,0.00,,,0.00,,2013-04-08 13:22:00,
2013-04-08 09:32:00,46.0,43.0,29.83,ESE,107,10.0,13.0,88,0.00,,,0.00,,2013-04-08 13:32:00,
2013-04-08 09:43:00,46.0,43.0,29.83,ESE,107,10.0,13.0,88,0.00,,,0.00,,2013-04-08 13:43:00,
2013-04-08 09:52:00,48.0,45.0,29.81,ESE,119,8.0,13.0,91,0.00,,,0.00,,2013-04-08 13:52:00,
2013-04-08 10:03:00,50.0,47.0,29.81,SE,136,11.0,14.0,91,0.00,,,0.00,,2013-04-08 14:03:00,
2013-04-08 10:12:00,50.0,47.0,29.81,SE,136,11.0,14.0,91,0.00,,,0.00,,2013-04-08 14:12:00,
2013-04-08 10:22:00,53.0,50.0,29.79,SE,140,10.0,14.0,91,0.00,,,0.00,,2013-04-08 14:22:00,
2013-04-08 10:32:00,56.0,52.0,29.79,South,169,11.0,18.0,88,0.00,,,0.00,,2013-04-08 14:32:00,
2013-04-08 10:42:00,59.0,53.0,29.77,South,171,14.0,17.0,80,0.00,,,0.00,,2013-04-08 14:42:00,
2013-04-08 10:52:00,59.0,53.0,29.77,South,171,14.0,17.0,80,0.00,,,0.00,,2013-04-08 14:52:00,
2013-04-08 11:02:00,62.0,54.0,29.78,South,190,26.0,28.0,74,0.00,,,0.00,,2013-04-08 15:02:00,
2013-04-08 11:12:00,62.0,52.0,29.76,South,191,21.0,29.0,71,0.00,,,0.00,,2013-04-08 15:12:00,
2013-04-08 11:22:00,62.0,52.0,29.76,South,191,21.0,29.0,71,0.00,,,0.00,,2013-04-08 15:22:00,
2013-04-08 11:34:00,62.0,53.0,29.77,SSW,197,19.0,31.0,73,0.00,,,0.00,,2013-04-08 15:34:00,
2013-04-08 11:43:00,62.0,53.0,29.77,SSW,197,19.0,31.0,73,0.00,,,0.00,,2013-04-08 15:43:00,
2013-04-08 11:53:00,61.0,53.0,29.76,SSW,193,23.0,32.0,75,0.01,,,0.01,,2013-04-08 15:53:00,
2013-04-08 12:03:00,61.0,54.0,29.76,SSW,199,20.0,35.0,79,0.01,,,0.01,,2013-04-08 16:03:00,
2013-04-08 12:13:00,61.0,54.0,29.77,SSW,212,21.0,28.0,79,0.01,,,0.01,,2013-04-08 16:13:00,
2013-04-08 12:23:00,61.0,54.0,29.77,SSW,212,21.0,28.0,79,0.01,,,0.01,,2013-04-08 16:23:00,
2013-04-08 12:32:00,61.0,54.0,29.77,SSW,212,21.0,28.0,79,0.01,,,0.01,,2013-04-08 16:32:00,
2013-04-08 12:42:00,63.0,55.0,29.76,SSW,209,18.0,30.0,76,0.01,,,0.01,,2013-04-08 16:42:00,
2013-04-08 12:53:00,65.0,56.0,29.75,SW,227,27.0,33.0,72,0.00,,,0.01,,2013-04-08 16:53:00,
2013-04-08 13:03:00,66.0,56.0,29.76,SW,225,22.0,33.0,70,0.00,,,0.01,,2013-04-08 17:03:00,
2013-04-08 13:12:00,67.0,56.0,29.76,SW,226,30.0,40.0,67,0.00,,,0.01,,2013-04-08 17:12:00,
2013-04-08 13:23:00,67.0,56.0,29.76,SW,226,30.0,40.0,67,0.00,,,0.01,,2013-04-08 17:23:00,
2013-04-08 13:32:00,67.0,56.0,29.76,SW,219,19.0,33.0,68,0.00,,,0.01,,2013-04-08 17:32:00,
2013-04-08 13:43:00,67.0,56.0,29.76,SW,219,19.0,33.0,68,0.00,,,0.01,,2013-04-08 17:43:00,
2013-04-08 13:52:00,66.0,56.0,29.76,SW,232,17.0,32.0,70,0.00,,,0.01,,2013-04-08 17:52:00,
2013-04-08 14:02:00,66.0,56.0,29.76,SW,232,17.0,29.0,69,0.00,,,0.01,,2013-04-08 18:02:00,
2013-04-08 14:12:00,66.0,56.0,29.76,WSW,242,19.0,24.0,69,0.00,,,0.01,,2013-04-08 18:12:00,
2013-04-08 14:23:00,66.0,56.0,29.76,WSW,242,19.0,24.0,69,0.00,,,0.01,,2013-04-08 18:23:00,
2013-04-08 14:32:00,67.0,57.0,29.76,WSW,242,18.0,30.0,70,0.00,,,0.01,,2013-04-08 18:32:00,
2013-04-08 14:42:00,69.0,58.0,29.75,SW,217,16.0,28.0,67,0.00,,,0.01,,2013-04-08 18:42:00,
2013-04-08 14:52:00,69.0,58.0,29.75,SW,217,16.0,28.0,67,0.00,,,0.01,,2013-04-08 18:52:00,
2013-04-08 15:03:00,69.0,57.0,29.76,WSW,242,20.0,33.0,66,0.00,,,0.01,,2013-04-08 19:03:00,
2013-04-08 15:12:00,69.0,57.0,29.76,SW,236,27.0,36.0,65,0.00,,,0.01,,2013-04-08 19:12:00,
2013-04-08 15:23:00,69.0,57.0,29.76,SW,236,27.0,36.0,65,0.00,,,0.01,,2013-04-08 19:23:00,
2013-04-08 15:33:00,69.0,57.0,29.76,West,259,20.0,31.0,66,0.00,,,0.01,,2013-04-08 19:33:00,
2013-04-08 15:42:00,70.0,58.0,29.76,WSW,254,20.0,29.0,65,0.00,,,0.01,,2013-04-08 19:42:00,
2013-04-08 15:52:00,70.0,58.0,29.76,WSW,254,20.0,29.0,65,0.00,,,0.01,,2013-04-08 19:52:00,
2013-04-08 16:02:00,71.0,57.0,29.75,WSW,242,22.0,27.0,62,0.00,,,0.01,,2013-04-08 20:02:00,
2013-04-08 16:12:00,71.0,57.0,29.75,WSW,243,25.0,32.0,62,0.00,,,0.01,,2013-04-08 20:12:00,
2013-04-08 16:23:00,71.0,57.0,29.75,WSW,243,25.0,32.0,62,0.00,,,0.01,,2013-04-08 20:23:00,
2013-04-08 16:33:00,71.0,57.0,29.75,WSW,252,21.0,33.0,62,0.00,,,0.01,,2013-04-08 20:33:00,
2013-04-08 16:43:00,71.0,57.0,29.75,WSW,252,21.0,33.0,62,0.00,,,0.01,,2013-04-08 20:43:00,
2013-04-08 16:52:00,71.0,57.0,29.76,WSW,245,18.0,29.0,62,0.00,,,0.01,,2013-04-08 20:52:00,
2013-04-08 17:02:00,71.0,57.0,29.77,WSW,250,19.0,26.0,62,0.00,,,0.01,,2013-04-08 21:02:00,
2013-04-08 17:12:00,72.0,56.0,29.77,WSW,246,22.0,32.0,58,0.00,,,0.01,,2013-04-08 21:12:00,
2013-04-08 17:22:00,72.0,56.0,29.77,WSW,246,22.0,32.0,58,0.00,,,0.01,,2013-04-08 21:22:00,
2013-04-08 17:33:00,72.0,57.0,29.78,WSW,240,19.0,29.0,59,0.00,,,0.01,,2013-04-08 21:33:00,
2013-04-08 17:43:00,72.0,57.0,29.78,WSW,240,19.0,29.0,59,0.00,,,0.01,,2013-04-08 21:43:00,
2013-04-08 17:53:00,71.0,56.0,29.78,WSW,252,15.0,30.0,60,0.00,,,0.01,,2013-04-08 21:53:00,
2013-04-08 18:03:00,73.0,57.0,29.77,West,270,19.0,25.0,57,0.00,,,0.01,,2013-04-08 22:03:00,
2013-04-08 18:13:00,73.0,57.0,29.77,West,270,19.0,25.0,57,0.00,,,0.01,,2013-04-08 22:13:00,
2013-04-08 18:23:00,73.0,56.0,29.78,West,267,13.0,27.0,56,0.00,,,0.01,,2013-04-08 22:23:00,
2013-04-08 18:32:00,73.0,56.0,29.78,West,267,13.0,27.0,56,0.00,,,0.01,,2013-04-08 22:32:00,
2013-04-08 18:43:00,73.0,55.0,29.79,West,259,13.0,27.0,54,0.00,,,0.01,,2013-04-08 22:43:00,
2013-04-08 18:53:00,73.0,58.0,29.80,WSW,238,13.0,21.0,59,0.00,,,0.01,,2013-04-08 22:53:00,
2013-04-08 19:02:00,72.0,57.0,29.80,WSW,245,13.0,18.0,60,0.00,,,0.01,,2013-04-08 23:02:00,
2013-04-08 19:12:00,72.0,57.0,29.80,WSW,245,13.0,18.0,60,0.00,,,0.01,,2013-04-08 23:12:00,
2013-04-08 19:22:00,72.0,57.0,29.80,WSW,245,13.0,18.0,60,0.00,,,0.01,,2013-04-08 23:22:00,
2013-04-08 19:32:00,71.0,58.0,29.81,WSW,241,11.0,17.0,64,0.00,,,0.01,,2013-04-08 23:32:00,
2013-04-08 19:43:00,71.0,58.0,29.81,WSW,241,11.0,17.0,64,0.00,,,0.01,,2013-04-08 23:43:00,
2013-04-08 19:52:00,70.0,58.0,29.81,SW,232,8.0,16.0,66,0.00,,,0.01,,2013-04-08 23:52:00,
2013-04-08 20:02:00,69.0,58.0,29.83,SW,234,7.0,13.0,68,0.00,,,0.01,,2013-04-09 00:02:00,
2013-04-08 20:13:00,69.0,58.0,29.83,SW,234,7.0,13.0,68,0.00,,,0.01,,2013-04-09 00:13:00,
2013-04-08 20:22:00,68.0,57.0,29.83,WSW,244,8.0,11.0,69,0.00,,,0.01,,2013-04-09 00:22:00,
2013-04-08 20:32:00,68.0,57.0,29.84,SW,234,11.0,14.0,69,0.00,,,0.01,,2013-04-09 00:32:00,
2013-04-08 20:42:00,68.0,57.0,29.84,SW,234,11.0,14.0,69,0.00,,,0.01,,2013-04-09 00:42:00,
2013-04-08 20:52:00,68.0,58.0,29.85,SW,221,17.0,21.0,71,0.00,,,0.01,,2013-04-09 00:52:00,
2013-04-08 21:02:00,66.0,57.0,29.85,WSW,244,16.0,21.0,74,0.00,,,0.01,,2013-04-09 01:02:00,
2013-04-08 21:12:00,66.0,57.0,29.85,WSW,244,16.0,21.0,74,0.00,,,0.01,,2013-04-09 01:12:00,
2013-04-08 21:22:00,65.0,58.0,29.88,NNW,338,11.0,14.0,77,0.01,,,0.02,,2013-04-09 01:22:00,
2013-04-08 21:33:00,62.0,54.0,29.90,NW,323,4.0,14.0,76,0.02,,,0.03,,2013-04-09 01:33:00,
2013-04-08 21:42:00,59.0,53.0,29.91,NW,326,6.0,14.0,81,0.06,,,0.07,,2013-04-09 01:42:00,
2013-04-08 21:52:00,59.0,53.0,29.91,NW,326,6.0,14.0,81,0.06,,,0.07,,2013-04-09 01:52:00,
2013-04-08 22:02:00,59.0,53.0,29.91,NW,326,6.0,14.0,81,0.06,,,0.07,,2013-04-09 02:02:00,
2013-04-08 22:13:00,59.0,53.0,29.91,NW,326,6.0,14.0,81,0.06,,,0.07,,2013-04-09 02:13:00,
2013-04-08 22:22:00,58.0,53.0,29.91,North,5,5.0,7.0,82,0.06,,,0.07,,2013-04-09 02:22:00,
2013-04-08 22:33:00,57.0,52.0,29.93,North,5,0.0,5.0,83,0.04,,,0.07,,2013-04-09 02:33:00,
2013-04-08 22:44:00,57.0,52.0,29.93,North,5,4.0,6.0,83,0.00,,,0.07,,2013-04-09 02:44:00,
2013-04-08 22:52:00,57.0,52.0,29.93,North,5,4.0,6.0,83,0.00,,,0.07,,2013-04-09 02:52:00,
2013-04-08 23:02:00,57.0,53.0,29.93,North,360,0.0,0.0,85,0.00,,,0.07,,2013-04-09 03:02:00,
2013-04-08 23:12:00,57.0,53.0,29.93,North,360,0.0,0.0,85,0.00,,,0.07,,2013-04-09 03:12:00,
2013-04-08 23:22:00,56.0,51.0,29.93,North,5,0.0,0.0,84,0.00,,,0.07,,2013-04-09 03:22:00,
2013-04-08 23:33:00,56.0,51.0,29.94,North,5,3.0,5.0,83,0.00,,,0.07,,2013-04-09 03:33:00,
2013-04-08 23:43:00,56.0,51.0,29.94,North,5,3.0,5.0,83,0.00,,,0.07,,2013-04-09 03:43:00,
2013-04-08 23:53:00,57.0,51.0,29.95,North,5,1.0,3.0,81,0.00,,,0.07,,2013-04-09 03:53:00,